Pearl, IL (62361)

9:49 AM CST on February 20, 2018 (GMT -0600)
Pittsfield Penstone Municipal | | Change Station

Elev 709 ft 39.64 °N, 90.78 °W | Updated 14 minutes ago

Overcast
Overcast
67 °F
Feels Like 67 °F
N
20
Wind Variable Wind from South
Gusts 24 mph

Today
High -- | Low -- °F
--% Chance of Precip.
Yesterday
High -- | Low -- °F
Precip. -- in
Pressure 29.86 in
Visibility 10.0 miles
Clouds Scattered Clouds 3100 ft
Mostly Cloudy 4400 ft
Overcast 7000 ft
Dew Point 60 °F
Humidity 79%
Rainfall 0.15 in
Snow Depth Not available.
6:48 AM 5:44 PM
Waxing Crescent, 22% visible
METAR KPPQ 201535Z AUTO 17017G21KT 10SM -RA SCT031 BKN044 OVC070 20/16 A2986 RMK AO2 T01950158
Pressure 29.86 in
Visibility 10.0 miles
Clouds Scattered Clouds 3100 ft
Mostly Cloudy 4400 ft
Overcast 7000 ft
Dew Point 60 °F
Humidity 79%
Rainfall 0.15 in
Snow Depth Not available.
6:48 AM 5:44 PM
Waxing Crescent, 22% visible
METAR KPPQ 201535Z AUTO 17017G21KT 10SM -RA SCT031 BKN044 OVC070 20/16 A2986 RMK AO2 T01950158

Get Severe Weather Alerts

Thanks for signing up!

Be on the lookout for a verification email in your inbox.

You'll start receiving the daily forecast at 6 AM.

×

10-Day Weather Forecast

Almanac

Astronomy

Feb. 20, 2018 Rise Set
Actual Time
Civil Twilight
Nautical Twilight
Astronomical Twilight
Moon
Length of Visible Light
Length of Day
Tomorrow will be .
, % of the Moon is Illuminated

Today's Extremes

State Highs State Lows

Community

WunderPhotos

Category 6

Welcome to Category 6. This is the collective home for Weather Underground's featured writeups by Dr. Jeff Masters (right), Bob Henson (left), Chris Burt, and other regular contributors.

Nearby

Air Quality

  Air Quality AQ Index Pollutant
Not available.

Snow Depth

Station Depth Elevation

Earthquake Activity

City Distance Mag. Time & Date
Minimum magnitude displayed is 2.5.

Coastal Water Temperatures

Place Temperature

Stations

Nearby Weather Stations

Station Location Temp. Windchill Dew Point Humidity Wind Precip. Elev Updated Type
                   

Watches & Warnings

There are currently no watches in effect.